sensor_id;sensor_type;location;lat;lon;timestamp;temperature;humidity
53498;DHT22;39382;47.168;16.008;2023-05-29T00:01:13;13.20;99.90
53498;DHT22;39382;47.168;16.008;2023-05-29T00:03:38;13.10;99.90
53498;DHT22;39382;47.168;16.008;2023-05-29T00:06:04;13.10;99.90
53498;DHT22;39382;47.168;16.008;2023-05-29T00:08:31;13.10;99.90
53498;DHT22;39382;47.168;16.008;2023-05-29T00:10:57;13.20;99.90
53498;DHT22;39382;47.168;16.008;2023-05-29T00:13:23;13.10;99.90
53498;DHT22;39382;47.168;16.008;2023-05-29T00:15:49;13.10;99.90
53498;DHT22;39382;47.168;16.008;2023-05-29T00:18:15;13.10;99.90
53498;DHT22;39382;47.168;16.008;2023-05-29T00:20:40;13.10;99.90
53498;DHT22;39382;47.168;16.008;2023-05-29T00:23:06;13.10;99.90
53498;DHT22;39382;47.168;16.008;2023-05-29T00:25:33;13.10;99.90
53498;DHT22;39382;47.168;16.008;2023-05-29T00:27:58;13.00;99.90
53498;DHT22;39382;47.168;16.008;2023-05-29T00:30:24;13.00;99.90
53498;DHT22;39382;47.168;16.008;2023-05-29T00:32:50;12.90;99.90
53498;DHT22;39382;47.168;16.008;2023-05-29T00:35:17;12.90;99.90
53498;DHT22;39382;47.168;16.008;2023-05-29T00:37:43;12.80;99.90
53498;DHT22;39382;47.168;16.008;2023-05-29T00:40:10;12.80;99.90
53498;DHT22;39382;47.168;16.008;2023-05-29T00:42:36;12.80;99.90
53498;DHT22;39382;47.168;16.008;2023-05-29T00:45:02;12.80;99.90
53498;DHT22;39382;47.168;16.008;2023-05-29T00:47:28;12.80;99.90
53498;DHT22;39382;47.168;16.008;2023-05-29T00:49:56;12.80;99.90
53498;DHT22;39382;47.168;16.008;2023-05-29T00:52:23;12.80;99.90
53498;DHT22;39382;47.168;16.008;2023-05-29T00:54:49;12.80;99.90
53498;DHT22;39382;47.168;16.008;2023-05-29T00:57:16;12.60;99.90
53498;DHT22;39382;47.168;16.008;2023-05-29T00:59:42;12.70;99.90
53498;DHT22;39382;47.168;16.008;2023-05-29T01:02:09;12.70;99.90
53498;DHT22;39382;47.168;16.008;2023-05-29T01:04:36;12.50;99.90
53498;DHT22;39382;47.168;16.008;2023-05-29T01:07:02;12.40;99.90
53498;DHT22;39382;47.168;16.008;2023-05-29T01:09:30;12.40;99.90
53498;DHT22;39382;47.168;16.008;2023-05-29T01:12:36;12.30;99.90
53498;DHT22;39382;47.168;16.008;2023-05-29T01:18:28;12.30;99.90
53498;DHT22;39382;47.168;16.008;2023-05-29T01:24:12;12.30;99.90
53498;DHT22;39382;47.168;16.008;2023-05-29T01:27:01;12.20;99.90
53498;DHT22;39382;47.168;16.008;2023-05-29T01:29:30;12.20;99.90
53498;DHT22;39382;47.168;16.008;2023-05-29T01:31:58;12.20;99.90
53498;DHT22;39382;47.168;16.008;2023-05-29T01:34:24;12.20;99.90
53498;DHT22;39382;47.168;16.008;2023-05-29T01:36:50;12.20;99.90
53498;DHT22;39382;47.168;16.008;2023-05-29T01:39:16;12.20;99.90
53498;DHT22;39382;47.168;16.008;2023-05-29T01:41:45;12.10;99.90
53498;DHT22;39382;47.168;16.008;2023-05-29T01:44:12;12.10;99.90
53498;DHT22;39382;47.168;16.008;2023-05-29T01:46:42;12.10;99.90
53498;DHT22;39382;47.168;16.008;2023-05-29T01:49:09;12.10;99.90
53498;DHT22;39382;47.168;16.008;2023-05-29T01:51:37;12.00;99.90
53498;DHT22;39382;47.168;16.008;2023-05-29T01:54:02;12.00;99.90
53498;DHT22;39382;47.168;16.008;2023-05-29T01:56:29;12.00;99.90
53498;DHT22;39382;47.168;16.008;2023-05-29T01:58:56;12.00;99.90
53498;DHT22;39382;47.168;16.008;2023-05-29T02:01:23;11.90;99.90
53498;DHT22;39382;47.168;16.008;2023-05-29T02:03:48;12.00;99.90
53498;DHT22;39382;47.168;16.008;2023-05-29T02:06:14;11.90;99.90
53498;DHT22;39382;47.168;16.008;2023-05-29T02:08:40;11.90;99.90
53498;DHT22;39382;47.168;16.008;2023-05-29T02:11:06;11.90;99.90
53498;DHT22;39382;47.168;16.008;2023-05-29T02:13:32;11.90;99.90
53498;DHT22;39382;47.168;16.008;2023-05-29T02:15:58;11.90;99.90
53498;DHT22;39382;47.168;16.008;2023-05-29T02:18:23;11.90;99.90
53498;DHT22;39382;47.168;16.008;2023-05-29T02:20:49;11.80;99.90
53498;DHT22;39382;47.168;16.008;2023-05-29T02:23:15;11.80;99.90
53498;DHT22;39382;47.168;16.008;2023-05-29T02:25:41;11.80;99.90
53498;DHT22;39382;47.168;16.008;2023-05-29T02:28:07;11.80;99.90
53498;DHT22;39382;47.168;16.008;2023-05-29T02:30:34;11.80;99.90
53498;DHT22;39382;47.168;16.008;2023-05-29T02:32:59;11.70;99.90
53498;DHT22;39382;47.168;16.008;2023-05-29T02:35:25;11.70;99.90
53498;DHT22;39382;47.168;16.008;2023-05-29T02:37:51;11.60;99.90
53498;DHT22;39382;47.168;16.008;2023-05-29T02:40:18;11.60;99.90
53498;DHT22;39382;47.168;16.008;2023-05-29T02:42:44;11.50;99.90
53498;DHT22;39382;47.168;16.008;2023-05-29T02:45:10;11.50;99.90
53498;DHT22;39382;47.168;16.008;2023-05-29T02:47:36;11.50;99.90
53498;DHT22;39382;47.168;16.008;2023-05-29T02:50:02;11.50;99.90
53498;DHT22;39382;47.168;16.008;2023-05-29T02:52:28;11.50;99.90
53498;DHT22;39382;47.168;16.008;2023-05-29T02:54:55;11.50;99.90
53498;DHT22;39382;47.168;16.008;2023-05-29T02:57:22;11.50;99.90
53498;DHT22;39382;47.168;16.008;2023-05-29T02:59:47;11.40;99.90
53498;DHT22;39382;47.168;16.008;2023-05-29T03:02:13;11.40;99.90
53498;DHT22;39382;47.168;16.008;2023-05-29T03:04:38;11.30;99.90
53498;DHT22;39382;47.168;16.008;2023-05-29T03:07:04;11.40;99.90
53498;DHT22;39382;47.168;16.008;2023-05-29T03:09:30;11.30;99.90
53498;DHT22;39382;47.168;16.008;2023-05-29T03:11:55;11.30;99.90
53498;DHT22;39382;47.168;16.008;2023-05-29T03:14:21;11.30;99.90
53498;DHT22;39382;47.168;16.008;2023-05-29T03:16:48;11.30;99.90
53498;DHT22;39382;47.168;16.008;2023-05-29T03:19:14;11.20;99.90
53498;DHT22;39382;47.168;16.008;2023-05-29T03:21:40;11.10;99.90
53498;DHT22;39382;47.168;16.008;2023-05-29T03:24:06;11.10;99.90
53498;DHT22;39382;47.168;16.008;2023-05-29T03:26:32;11.20;99.90
53498;DHT22;39382;47.168;16.008;2023-05-29T03:28:57;11.20;99.90
53498;DHT22;39382;47.168;16.008;2023-05-29T03:31:23;11.30;99.90
53498;DHT22;39382;47.168;16.008;2023-05-29T03:33:49;11.40;99.90
53498;DHT22;39382;47.168;16.008;2023-05-29T03:36:15;11.40;99.90
53498;DHT22;39382;47.168;16.008;2023-05-29T03:38:42;11.40;99.90
53498;DHT22;39382;47.168;16.008;2023-05-29T03:41:08;11.40;99.90
53498;DHT22;39382;47.168;16.008;2023-05-29T03:43:34;11.40;99.90
53498;DHT22;39382;47.168;16.008;2023-05-29T03:46:00;11.40;99.90
53498;DHT22;39382;47.168;16.008;2023-05-29T03:48:25;11.50;99.90
53498;DHT22;39382;47.168;16.008;2023-05-29T03:50:51;11.50;99.90
53498;DHT22;39382;47.168;16.008;2023-05-29T03:53:16;11.50;99.90
53498;DHT22;39382;47.168;16.008;2023-05-29T03:55:42;11.60;99.90
53498;DHT22;39382;47.168;16.008;2023-05-29T03:58:08;11.60;99.90
53498;DHT22;39382;47.168;16.008;2023-05-29T04:00:33;11.80;99.90
53498;DHT22;39382;47.168;16.008;2023-05-29T04:02:59;11.80;99.90
53498;DHT22;39382;47.168;16.008;2023-05-29T04:05:25;11.80;99.90
53498;DHT22;39382;47.168;16.008;2023-05-29T04:07:52;11.90;99.90
53498;DHT22;39382;47.168;16.008;2023-05-29T04:10:18;11.80;99.90
53498;DHT22;39382;47.168;16.008;2023-05-29T04:12:44;11.90;99.90
53498;DHT22;39382;47.168;16.008;2023-05-29T04:15:09;11.90;99.90
53498;DHT22;39382;47.168;16.008;2023-05-29T04:17:35;12.00;99.90
53498;DHT22;39382;47.168;16.008;2023-05-29T04:20:01;12.00;99.90
53498;DHT22;39382;47.168;16.008;2023-05-29T04:22:33;12.10;99.90
53498;DHT22;39382;47.168;16.008;2023-05-29T04:24:59;12.10;99.90
53498;DHT22;39382;47.168;16.008;2023-05-29T04:27:25;12.20;99.90
53498;DHT22;39382;47.168;16.008;2023-05-29T04:29:50;12.30;99.90
53498;DHT22;39382;47.168;16.008;2023-05-29T04:32:16;12.40;99.90
53498;DHT22;39382;47.168;16.008;2023-05-29T04:34:42;12.50;99.90
53498;DHT22;39382;47.168;16.008;2023-05-29T04:37:09;12.50;99.90
53498;DHT22;39382;47.168;16.008;2023-05-29T04:39:35;12.60;99.90
53498;DHT22;39382;47.168;16.008;2023-05-29T04:42:00;12.90;99.90
53498;DHT22;39382;47.168;16.008;2023-05-29T04:44:26;13.10;99.90
53498;DHT22;39382;47.168;16.008;2023-05-29T04:46:52;13.10;99.90
53498;DHT22;39382;47.168;16.008;2023-05-29T04:49:18;13.30;99.90
53498;DHT22;39382;47.168;16.008;2023-05-29T04:51:45;13.50;99.90
53498;DHT22;39382;47.168;16.008;2023-05-29T04:54:12;13.60;99.90
53498;DHT22;39382;47.168;16.008;2023-05-29T04:56:38;13.80;99.90
53498;DHT22;39382;47.168;16.008;2023-05-29T04:59:05;13.90;99.90
53498;DHT22;39382;47.168;16.008;2023-05-29T05:01:32;13.90;99.90
53498;DHT22;39382;47.168;16.008;2023-05-29T05:04:00;14.10;99.90
53498;DHT22;39382;47.168;16.008;2023-05-29T05:06:25;14.10;99.90
53498;DHT22;39382;47.168;16.008;2023-05-29T05:08:52;14.20;99.90
53498;DHT22;39382;47.168;16.008;2023-05-29T05:11:18;14.40;99.90
53498;DHT22;39382;47.168;16.008;2023-05-29T05:13:44;14.50;99.90
53498;DHT22;39382;47.168;16.008;2023-05-29T05:16:10;14.60;99.90
53498;DHT22;39382;47.168;16.008;2023-05-29T05:18:36;14.60;99.90
53498;DHT22;39382;47.168;16.008;2023-05-29T05:21:02;14.80;99.90
53498;DHT22;39382;47.168;16.008;2023-05-29T05:23:29;14.90;99.90
53498;DHT22;39382;47.168;16.008;2023-05-29T05:25:55;15.10;99.90
53498;DHT22;39382;47.168;16.008;2023-05-29T05:28:21;15.20;99.90
53498;DHT22;39382;47.168;16.008;2023-05-29T05:30:47;15.40;99.90
53498;DHT22;39382;47.168;16.008;2023-05-29T05:33:12;16.50;99.90
53498;DHT22;39382;47.168;16.008;2023-05-29T05:35:38;17.30;99.90
53498;DHT22;39382;47.168;16.008;2023-05-29T05:38:04;17.60;99.90
53498;DHT22;39382;47.168;16.008;2023-05-29T05:40:30;18.10;99.90
53498;DHT22;39382;47.168;16.008;2023-05-29T05:42:55;18.30;99.90
53498;DHT22;39382;47.168;16.008;2023-05-29T05:45:21;18.30;99.40
53498;DHT22;39382;47.168;16.008;2023-05-29T05:47:47;18.40;99.00
53498;DHT22;39382;47.168;16.008;2023-05-29T05:50:13;18.50;97.70
53498;DHT22;39382;47.168;16.008;2023-05-29T05:52:38;18.70;97.60
53498;DHT22;39382;47.168;16.008;2023-05-29T05:55:04;18.50;96.60
53498;DHT22;39382;47.168;16.008;2023-05-29T05:57:30;18.30;96.90
53498;DHT22;39382;47.168;16.008;2023-05-29T06:00:04;18.10;97.10
53498;DHT22;39382;47.168;16.008;2023-05-29T06:02:33;17.90;97.20
53498;DHT22;39382;47.168;16.008;2023-05-29T06:04:58;18.00;96.90
53498;DHT22;39382;47.168;16.008;2023-05-29T06:07:24;18.00;96.90
53498;DHT22;39382;47.168;16.008;2023-05-29T06:09:50;18.00;97.30
53498;DHT22;39382;47.168;16.008;2023-05-29T06:12:16;18.20;96.50
53498;DHT22;39382;47.168;16.008;2023-05-29T06:14:41;18.20;96.30
53498;DHT22;39382;47.168;16.008;2023-05-29T06:17:07;18.20;96.30
53498;DHT22;39382;47.168;16.008;2023-05-29T06:19:33;18.40;96.00
53498;DHT22;39382;47.168;16.008;2023-05-29T06:21:58;18.50;95.20
53498;DHT22;39382;47.168;16.008;2023-05-29T06:24:24;18.40;94.40
53498;DHT22;39382;47.168;16.008;2023-05-29T06:26:49;18.50;94.60
53498;DHT22;39382;47.168;16.008;2023-05-29T06:29:15;18.70;95.10
53498;DHT22;39382;47.168;16.008;2023-05-29T06:31:41;18.80;94.50
53498;DHT22;39382;47.168;16.008;2023-05-29T06:34:07;18.90;94.20
53498;DHT22;39382;47.168;16.008;2023-05-29T06:36:32;19.00;94.70
53498;DHT22;39382;47.168;16.008;2023-05-29T06:38:58;19.30;94.60
53498;DHT22;39382;47.168;16.008;2023-05-29T06:41:24;19.30;94.10
53498;DHT22;39382;47.168;16.008;2023-05-29T06:43:50;19.10;93.40
53498;DHT22;39382;47.168;16.008;2023-05-29T06:46:17;19.10;93.70
53498;DHT22;39382;47.168;16.008;2023-05-29T06:48:42;19.20;93.70
53498;DHT22;39382;47.168;16.008;2023-05-29T06:51:09;19.30;94.30
53498;DHT22;39382;47.168;16.008;2023-05-29T06:53:37;19.50;93.60
53498;DHT22;39382;47.168;16.008;2023-05-29T06:56:03;19.70;92.90
53498;DHT22;39382;47.168;16.008;2023-05-29T06:58:29;19.70;92.30
53498;DHT22;39382;47.168;16.008;2023-05-29T07:00:56;19.90;91.50
53498;DHT22;39382;47.168;16.008;2023-05-29T07:03:21;20.00;91.70
53498;DHT22;39382;47.168;16.008;2023-05-29T07:05:47;20.10;90.80
53498;DHT22;39382;47.168;16.008;2023-05-29T07:08:13;20.20;91.80
53498;DHT22;39382;47.168;16.008;2023-05-29T07:10:38;20.40;90.60
53498;DHT22;39382;47.168;16.008;2023-05-29T07:13:04;20.50;88.70
53498;DHT22;39382;47.168;16.008;2023-05-29T07:15:32;20.90;85.70
53498;DHT22;39382;47.168;16.008;2023-05-29T07:17:57;21.10;81.90
53498;DHT22;39382;47.168;16.008;2023-05-29T07:20:23;21.40;82.60
53498;DHT22;39382;47.168;16.008;2023-05-29T07:22:48;21.40;77.00
53498;DHT22;39382;47.168;16.008;2023-05-29T07:25:14;21.30;76.60
53498;DHT22;39382;47.168;16.008;2023-05-29T07:27:40;21.30;74.50
53498;DHT22;39382;47.168;16.008;2023-05-29T07:30:07;21.50;73.80
53498;DHT22;39382;47.168;16.008;2023-05-29T07:32:33;21.70;73.20
53498;DHT22;39382;47.168;16.008;2023-05-29T07:34:58;21.80;71.30
53498;DHT22;39382;47.168;16.008;2023-05-29T07:37:24;21.80;67.90
53498;DHT22;39382;47.168;16.008;2023-05-29T07:39:50;22.00;67.10
53498;DHT22;39382;47.168;16.008;2023-05-29T07:42:16;22.10;60.50
53498;DHT22;39382;47.168;16.008;2023-05-29T07:44:42;22.30;60.70
53498;DHT22;39382;47.168;16.008;2023-05-29T07:47:08;22.50;60.30
53498;DHT22;39382;47.168;16.008;2023-05-29T07:49:34;22.50;54.70
53498;DHT22;39382;47.168;16.008;2023-05-29T07:52:01;22.60;54.90
53498;DHT22;39382;47.168;16.008;2023-05-29T07:54:27;22.70;55.80
53498;DHT22;39382;47.168;16.008;2023-05-29T07:56:53;22.90;54.80
53498;DHT22;39382;47.168;16.008;2023-05-29T07:59:18;22.90;52.10
53498;DHT22;39382;47.168;16.008;2023-05-29T08:01:44;22.90;51.90
53498;DHT22;39382;47.168;16.008;2023-05-29T08:04:11;23.00;51.40
53498;DHT22;39382;47.168;16.008;2023-05-29T08:06:36;23.10;51.10
53498;DHT22;39382;47.168;16.008;2023-05-29T08:09:02;23.00;49.90
53498;DHT22;39382;47.168;16.008;2023-05-29T08:11:29;23.30;50.90
53498;DHT22;39382;47.168;16.008;2023-05-29T08:13:54;23.50;51.50
53498;DHT22;39382;47.168;16.008;2023-05-29T08:16:20;23.60;50.90
53498;DHT22;39382;47.168;16.008;2023-05-29T08:18:47;23.60;50.20
53498;DHT22;39382;47.168;16.008;2023-05-29T08:21:13;23.40;49.60
53498;DHT22;39382;47.168;16.008;2023-05-29T08:23:39;23.40;50.20
53498;DHT22;39382;47.168;16.008;2023-05-29T08:26:05;23.30;48.30
53498;DHT22;39382;47.168;16.008;2023-05-29T08:28:31;23.10;48.00
53498;DHT22;39382;47.168;16.008;2023-05-29T08:30:56;23.20;46.40
53498;DHT22;39382;47.168;16.008;2023-05-29T08:33:22;23.40;47.70
53498;DHT22;39382;47.168;16.008;2023-05-29T08:35:48;23.60;48.10
53498;DHT22;39382;47.168;16.008;2023-05-29T08:38:13;23.70;49.10
53498;DHT22;39382;47.168;16.008;2023-05-29T08:40:39;23.90;46.60
53498;DHT22;39382;47.168;16.008;2023-05-29T08:43:07;23.60;47.70
53498;DHT22;39382;47.168;16.008;2023-05-29T08:45:42;23.60;47.70
53498;DHT22;39382;47.168;16.008;2023-05-29T08:48:09;23.60;47.50
53498;DHT22;39382;47.168;16.008;2023-05-29T08:50:35;23.50;50.90
53498;DHT22;39382;47.168;16.008;2023-05-29T08:53:03;23.70;49.90
53498;DHT22;39382;47.168;16.008;2023-05-29T08:55:29;23.80;48.90
53498;DHT22;39382;47.168;16.008;2023-05-29T08:57:55;24.10;47.90
53498;DHT22;39382;47.168;16.008;2023-05-29T09:00:22;24.20;47.90
53498;DHT22;39382;47.168;16.008;2023-05-29T09:02:53;24.30;48.10
53498;DHT22;39382;47.168;16.008;2023-05-29T09:05:21;24.30;45.50
53498;DHT22;39382;47.168;16.008;2023-05-29T09:07:47;24.20;47.30
53498;DHT22;39382;47.168;16.008;2023-05-29T09:10:15;24.30;47.30
53498;DHT22;39382;47.168;16.008;2023-05-29T09:12:41;24.20;45.50
53498;DHT22;39382;47.168;16.008;2023-05-29T09:15:27;24.20;48.50
53498;DHT22;39382;47.168;16.008;2023-05-29T09:17:54;24.60;48.30
53498;DHT22;39382;47.168;16.008;2023-05-29T09:20:21;24.80;46.40
53498;DHT22;39382;47.168;16.008;2023-05-29T09:23:11;24.70;46.80
53498;DHT22;39382;47.168;16.008;2023-05-29T09:25:41;24.70;47.00
53498;DHT22;39382;47.168;16.008;2023-05-29T09:28:10;24.60;45.40
53498;DHT22;39382;47.168;16.008;2023-05-29T09:30:46;24.70;46.30
53498;DHT22;39382;47.168;16.008;2023-05-29T09:33:14;24.70;46.40
53498;DHT22;39382;47.168;16.008;2023-05-29T09:35:40;24.40;45.80
53498;DHT22;39382;47.168;16.008;2023-05-29T09:38:07;24.30;46.60
53498;DHT22;39382;47.168;16.008;2023-05-29T09:40:37;24.10;46.30
53498;DHT22;39382;47.168;16.008;2023-05-29T09:43:05;24.20;45.30
53498;DHT22;39382;47.168;16.008;2023-05-29T09:45:33;24.40;46.50
53498;DHT22;39382;47.168;16.008;2023-05-29T09:47:58;24.60;47.30
53498;DHT22;39382;47.168;16.008;2023-05-29T09:50:28;24.70;44.90
53498;DHT22;39382;47.168;16.008;2023-05-29T09:52:56;24.60;44.50
53498;DHT22;39382;47.168;16.008;2023-05-29T09:55:27;24.50;45.00
53498;DHT22;39382;47.168;16.008;2023-05-29T09:57:54;24.50;43.80
53498;DHT22;39382;47.168;16.008;2023-05-29T10:00:22;24.40;44.70
53498;DHT22;39382;47.168;16.008;2023-05-29T10:02:49;24.50;46.00
53498;DHT22;39382;47.168;16.008;2023-05-29T10:05:15;24.50;45.90
53498;DHT22;39382;47.168;16.008;2023-05-29T10:07:44;24.70;43.90
53498;DHT22;39382;47.168;16.008;2023-05-29T10:10:14;24.50;43.30
53498;DHT22;39382;47.168;16.008;2023-05-29T10:12:47;24.40;42.60
53498;DHT22;39382;47.168;16.008;2023-05-29T10:15:14;24.50;44.50
53498;DHT22;39382;47.168;16.008;2023-05-29T10:17:49;24.40;42.70
53498;DHT22;39382;47.168;16.008;2023-05-29T10:20:17;24.30;43.20
53498;DHT22;39382;47.168;16.008;2023-05-29T10:22:47;24.60;43.70
53498;DHT22;39382;47.168;16.008;2023-05-29T10:25:14;24.80;43.10
53498;DHT22;39382;47.168;16.008;2023-05-29T10:27:41;24.90;42.80
53498;DHT22;39382;47.168;16.008;2023-05-29T10:30:31;25.00;42.00
53498;DHT22;39382;47.168;16.008;2023-05-29T10:36:22;25.30;41.90
53498;DHT22;39382;47.168;16.008;2023-05-29T10:38:50;25.20;40.90
53498;DHT22;39382;47.168;16.008;2023-05-29T10:43:54;25.00;39.90
53498;DHT22;39382;47.168;16.008;2023-05-29T10:46:20;24.90;39.60
53498;DHT22;39382;47.168;16.008;2023-05-29T10:48:49;24.90;40.10
53498;DHT22;39382;47.168;16.008;2023-05-29T10:51:28;24.90;40.90
53498;DHT22;39382;47.168;16.008;2023-05-29T10:53:56;24.80;39.40
53498;DHT22;39382;47.168;16.008;2023-05-29T10:56:23;25.10;41.80
53498;DHT22;39382;47.168;16.008;2023-05-29T10:58:56;25.30;38.40
53498;DHT22;39382;47.168;16.008;2023-05-29T11:01:24;25.20;38.30
53498;DHT22;39382;47.168;16.008;2023-05-29T11:06:38;25.30;38.70
53498;DHT22;39382;47.168;16.008;2023-05-29T11:09:04;25.10;38.40
53498;DHT22;39382;47.168;16.008;2023-05-29T11:11:33;25.10;36.60
53498;DHT22;39382;47.168;16.008;2023-05-29T11:14:03;25.20;37.10
53498;DHT22;39382;47.168;16.008;2023-05-29T11:18:57;25.10;35.00
53498;DHT22;39382;47.168;16.008;2023-05-29T11:23:53;25.20;35.80
53498;DHT22;39382;47.168;16.008;2023-05-29T11:26:22;25.30;36.40
53498;DHT22;39382;47.168;16.008;2023-05-29T11:28:48;25.40;40.80
53498;DHT22;39382;47.168;16.008;2023-05-29T11:31:15;25.40;41.10
53498;DHT22;39382;47.168;16.008;2023-05-29T11:33:49;25.50;41.50
53498;DHT22;39382;47.168;16.008;2023-05-29T11:36:18;25.80;42.10
53498;DHT22;39382;47.168;16.008;2023-05-29T11:38:45;25.80;40.60
53498;DHT22;39382;47.168;16.008;2023-05-29T11:41:10;25.70;37.20
53498;DHT22;39382;47.168;16.008;2023-05-29T11:43:36;25.40;36.90
53498;DHT22;39382;47.168;16.008;2023-05-29T11:46:02;25.50;37.60
53498;DHT22;39382;47.168;16.008;2023-05-29T11:48:32;25.60;37.30
53498;DHT22;39382;47.168;16.008;2023-05-29T11:50:57;25.40;38.30
53498;DHT22;39382;47.168;16.008;2023-05-29T11:53:23;25.60;39.80
53498;DHT22;39382;47.168;16.008;2023-05-29T11:55:51;25.60;40.40
53498;DHT22;39382;47.168;16.008;2023-05-29T11:58:16;25.50;42.90
53498;DHT22;39382;47.168;16.008;2023-05-29T12:00:42;25.40;41.60
53498;DHT22;39382;47.168;16.008;2023-05-29T12:03:08;25.50;42.10
53498;DHT22;39382;47.168;16.008;2023-05-29T12:05:46;25.60;42.40
53498;DHT22;39382;47.168;16.008;2023-05-29T12:08:14;25.90;41.70
53498;DHT22;39382;47.168;16.008;2023-05-29T12:10:50;26.00;41.70
53498;DHT22;39382;47.168;16.008;2023-05-29T12:13:18;25.80;41.20
53498;DHT22;39382;47.168;16.008;2023-05-29T12:15:44;25.70;42.70
53498;DHT22;39382;47.168;16.008;2023-05-29T12:18:10;25.70;42.80
53498;DHT22;39382;47.168;16.008;2023-05-29T12:20:36;25.80;41.70
53498;DHT22;39382;47.168;16.008;2023-05-29T12:23:02;25.70;42.30
53498;DHT22;39382;47.168;16.008;2023-05-29T12:25:28;25.80;43.60
53498;DHT22;39382;47.168;16.008;2023-05-29T12:27:57;25.90;42.50
53498;DHT22;39382;47.168;16.008;2023-05-29T12:30:24;26.00;41.90
53498;DHT22;39382;47.168;16.008;2023-05-29T12:32:53;26.10;43.00
53498;DHT22;39382;47.168;16.008;2023-05-29T12:35:21;26.20;41.50
53498;DHT22;39382;47.168;16.008;2023-05-29T12:37:58;26.10;40.80
53498;DHT22;39382;47.168;16.008;2023-05-29T12:43:00;25.80;42.00
53498;DHT22;39382;47.168;16.008;2023-05-29T12:45:29;25.90;40.60
53498;DHT22;39382;47.168;16.008;2023-05-29T12:48:05;25.70;39.30
53498;DHT22;39382;47.168;16.008;2023-05-29T12:50:33;25.70;38.80
53498;DHT22;39382;47.168;16.008;2023-05-29T12:53:04;25.80;38.20
53498;DHT22;39382;47.168;16.008;2023-05-29T12:55:38;25.80;39.00
53498;DHT22;39382;47.168;16.008;2023-05-29T12:58:12;25.80;40.10
53498;DHT22;39382;47.168;16.008;2023-05-29T13:00:40;25.80;38.80
53498;DHT22;39382;47.168;16.008;2023-05-29T13:03:06;25.70;39.60
53498;DHT22;39382;47.168;16.008;2023-05-29T13:05:32;25.90;39.90
53498;DHT22;39382;47.168;16.008;2023-05-29T13:07:58;25.90;39.90
53498;DHT22;39382;47.168;16.008;2023-05-29T13:10:25;26.10;39.30
53498;DHT22;39382;47.168;16.008;2023-05-29T13:12:52;26.00;39.60
53498;DHT22;39382;47.168;16.008;2023-05-29T13:15:23;26.00;39.60
53498;DHT22;39382;47.168;16.008;2023-05-29T13:17:49;26.00;38.80
53498;DHT22;39382;47.168;16.008;2023-05-29T13:20:16;25.70;37.70
53498;DHT22;39382;47.168;16.008;2023-05-29T13:22:43;25.80;38.10
53498;DHT22;39382;47.168;16.008;2023-05-29T13:25:10;25.90;38.10
53498;DHT22;39382;47.168;16.008;2023-05-29T13:27:38;25.90;38.60
53498;DHT22;39382;47.168;16.008;2023-05-29T13:30:05;25.90;39.10
53498;DHT22;39382;47.168;16.008;2023-05-29T13:32:31;25.90;38.30
53498;DHT22;39382;47.168;16.008;2023-05-29T13:34:57;25.90;38.50
53498;DHT22;39382;47.168;16.008;2023-05-29T13:37:22;25.90;37.10
53498;DHT22;39382;47.168;16.008;2023-05-29T13:39:48;25.90;38.70
53498;DHT22;39382;47.168;16.008;2023-05-29T13:42:14;26.00;39.10
53498;DHT22;39382;47.168;16.008;2023-05-29T13:44:40;26.00;38.30
53498;DHT22;39382;47.168;16.008;2023-05-29T13:47:06;26.00;37.90
53498;DHT22;39382;47.168;16.008;2023-05-29T13:49:33;25.90;38.60
53498;DHT22;39382;47.168;16.008;2023-05-29T13:51:59;26.00;38.70
53498;DHT22;39382;47.168;16.008;2023-05-29T13:54:24;25.90;38.60
53498;DHT22;39382;47.168;16.008;2023-05-29T13:56:50;25.90;39.70
53498;DHT22;39382;47.168;16.008;2023-05-29T13:59:16;26.00;39.70
53498;DHT22;39382;47.168;16.008;2023-05-29T14:01:41;25.70;37.70
53498;DHT22;39382;47.168;16.008;2023-05-29T14:04:07;25.70;38.10
53498;DHT22;39382;47.168;16.008;2023-05-29T14:06:33;25.70;38.80
53498;DHT22;39382;47.168;16.008;2023-05-29T14:08:59;25.80;39.20
53498;DHT22;39382;47.168;16.008;2023-05-29T14:11:25;26.00;38.60
53498;DHT22;39382;47.168;16.008;2023-05-29T14:13:52;26.00;39.20
53498;DHT22;39382;47.168;16.008;2023-05-29T14:16:18;26.10;40.00
53498;DHT22;39382;47.168;16.008;2023-05-29T14:18:43;26.20;40.40
53498;DHT22;39382;47.168;16.008;2023-05-29T14:21:09;26.30;40.70
53498;DHT22;39382;47.168;16.008;2023-05-29T14:23:36;26.40;41.00
53498;DHT22;39382;47.168;16.008;2023-05-29T14:26:02;26.10;38.70
53498;DHT22;39382;47.168;16.008;2023-05-29T14:28:28;25.80;38.10
53498;DHT22;39382;47.168;16.008;2023-05-29T14:30:53;25.60;39.40
53498;DHT22;39382;47.168;16.008;2023-05-29T14:33:19;25.80;40.30
53498;DHT22;39382;47.168;16.008;2023-05-29T14:35:45;25.90;40.00
53498;DHT22;39382;47.168;16.008;2023-05-29T14:38:10;25.90;40.20
53498;DHT22;39382;47.168;16.008;2023-05-29T14:40:36;25.70;39.30
53498;DHT22;39382;47.168;16.008;2023-05-29T14:43:03;25.90;40.40
53498;DHT22;39382;47.168;16.008;2023-05-29T14:45:28;26.00;39.40
53498;DHT22;39382;47.168;16.008;2023-05-29T14:47:54;25.90;40.60
53498;DHT22;39382;47.168;16.008;2023-05-29T14:50:20;26.00;40.30
53498;DHT22;39382;47.168;16.008;2023-05-29T14:52:46;26.00;40.40
53498;DHT22;39382;47.168;16.008;2023-05-29T14:55:13;26.00;41.00
53498;DHT22;39382;47.168;16.008;2023-05-29T14:57:41;25.80;40.20
53498;DHT22;39382;47.168;16.008;2023-05-29T15:00:07;25.80;40.10
53498;DHT22;39382;47.168;16.008;2023-05-29T15:02:33;25.70;39.20
53498;DHT22;39382;47.168;16.008;2023-05-29T15:04:59;25.90;40.30
53498;DHT22;39382;47.168;16.008;2023-05-29T15:07:25;25.70;39.20
53498;DHT22;39382;47.168;16.008;2023-05-29T15:09:51;25.40;39.60
53498;DHT22;39382;47.168;16.008;2023-05-29T15:12:17;25.40;40.20
53498;DHT22;39382;47.168;16.008;2023-05-29T15:14:42;25.40;42.20
53498;DHT22;39382;47.168;16.008;2023-05-29T15:17:08;25.40;42.50
53498;DHT22;39382;47.168;16.008;2023-05-29T15:19:34;25.40;41.40
53498;DHT22;39382;47.168;16.008;2023-05-29T15:21:59;25.50;41.80
53498;DHT22;39382;47.168;16.008;2023-05-29T15:24:25;25.50;41.00
53498;DHT22;39382;47.168;16.008;2023-05-29T15:26:51;25.50;41.20
53498;DHT22;39382;47.168;16.008;2023-05-29T15:29:16;25.50;42.00
53498;DHT22;39382;47.168;16.008;2023-05-29T15:31:42;25.60;41.60
53498;DHT22;39382;47.168;16.008;2023-05-29T15:34:08;25.70;40.70
53498;DHT22;39382;47.168;16.008;2023-05-29T15:36:34;25.60;41.20